Latest Weather Observations for Gold Coast Seaway

IDQ60801

Issued at 1:51 pm EST Friday 16 November 2018 (issued every 10 minutes, with the page automatically refreshed every 10 minutes)

About weather observations | Map of weather stations | Latest weather observations for QLD | Other Formats
Station Details ID: 040764 Name: GOLD COAST SEAWAY Lat: -27.94 Lon: 153.43 Height: 2.98 m
Data from the previous 72 hours. | See also: Recent months at Gold Coast Seaway
Date/Time
EST
Temp
°C
App
Temp
°C
Dew
Point
°C
Rel
Hum
%
Delta-T
°C
Wind Press
QNH
hPa
Press
MSL
hPa
Rain since
9am
mm
Dir  Spd
km/h
Gust
km/h
Spd
kts
Gust
kts
16/01:30pm 27.1 25.9 17.6 56 6.0 NE 20 24 11 13 1015.0 1015.0 0.0
16/01:00pm 27.3 26.3 18.0 56 5.9 NE 20 22 11 12 1015.4 1015.4 0.0
16/12:30pm 27.3 26.2 17.2 54 6.3 NE 19 22 10 12 1015.9 1015.9 0.0
16/12:00pm 27.9 27.2 17.4 52 6.6 NE 17 19 9 10 1016.2 1016.2 0.0
16/11:30am 27.7 27.3 18.1 56 6.1 ENE 17 20 9 11 1016.6 1016.6 0.0
16/11:00am 26.2 25.6 16.7 56 5.9 ENE 15 17 8 9 1017.0 1017.0 0.0
16/10:30am 26.5 26.4 17.8 58 5.5 ENE 15 17 8 9 1017.4 1017.4 0.0
16/10:00am 26.3 26.4 17.4 58 5.6 ENE 13 15 7 8 1017.7 1017.7 0.0
16/09:30am 26.1 26.8 18.0 61 5.1 E 11 13 6 7 1017.9 1017.9 0.0
16/09:00am 25.5 26.4 18.4 65 4.5 ESE 11 11 6 6 1017.9 1017.9 0.2
16/08:30am 25.3 26.4 18.0 64 4.6 ESE 9 11 5 6 1017.9 1017.9 0.2
16/08:00am 25.5 26.8 18.4 65 4.5 SE 9 9 5 5 1018.0 1018.0 0.2
16/07:30am 24.6 26.1 19.0 71 3.6 SE 9 9 5 5 1017.8 1017.8 0.2
16/07:00am 22.7 24.4 18.5 77 2.6 SW 7 9 4 5 1017.6 1017.6 0.2
16/06:30am 21.7 24.2 20.3 92 0.9 SSW 7 11 4 6 1017.5 1017.5 0.2
16/06:00am 20.8 23.1 20.6 99 0.1 SW 9 11 5 6 1017.2 1017.2 0.2
16/05:30am 19.9 21.8 19.7 99 0.1 SW 9 11 5 6 1017.3 1017.3 0.2
16/05:00am 19.6 21.7 19.4 99 0.1 SSW 7 9 4 5 1017.3 1017.3 0.2
16/04:30am 19.7 21.9 19.5 99 0.1 SSW 7 9 4 5 1016.8 1016.8 0.2
16/04:00am 20.0 21.5 19.8 99 0.1 SW 11 13 6 7 1016.6 1016.6 0.2
16/03:30am 20.1 21.7 19.9 99 0.1 SW 11 13 6 7 1016.4 1016.4 0.2
16/03:00am 20.2 21.8 20.0 99 0.1 SW 11 13 6 7 1016.3 1016.3 0.2
16/02:30am 20.2 21.8 19.9 98 0.2 SW 11 13 6 7 1016.3 1016.3 0.2
16/02:00am 20.7 22.3 20.0 96 0.4 SW 11 13 6 7 1016.5 1016.5 0.2
16/01:30am 21.2 23.1 19.7 91 1.0 SW 9 11 5 6 1016.5 1016.5 0.2
16/01:00am 21.4 23.5 19.0 86 1.5 NW 6 7 3 4 1016.6 1016.6 0.2
16/12:30am 21.7 23.1 18.7 83 1.9 NE 9 11 5 6 1017.1 1017.1 0.2
16/12:00am 22.3 23.2 19.3 83 1.9 ENE 13 15 7 8 1017.5 1017.5 0.2
 
Date/Time
EST
Temp
°C
App
Temp
°C
Dew
Point
°C
Rel
Hum
%
Delta-T
°C
Wind Press
QNH
hPa
Press
MSL
hPa
Rain since
9am
mm
Dir  Spd
km/h
Gust
km/h
Spd
kts
Gust
kts
15/11:30pm 22.5 22.7 18.5 78 2.5 NNE 15 17 8 9 1017.7 1017.7 0.2
15/11:00pm 23.1 24.3 18.2 74 3.1 ESE 9 11 5 6 1018.4 1018.4 0.0
15/10:30pm 22.9 23.2 17.8 73 3.2 NE 13 15 7 8 1018.2 1018.2 0.0
15/10:00pm 22.5 22.8 17.0 71 3.4 NE 11 15 6 8 1018.1 1018.1 0.0
15/09:30pm 22.8 21.9 16.8 69 3.7 NNE 17 19 9 10 1017.9 1017.9 0.0
15/09:00pm 23.2 22.7 17.0 68 3.8 NE 15 19 8 10 1017.7 1017.7 0.0
15/08:30pm 23.2 22.5 16.5 66 4.1 NNE 15 17 8 9 1017.6 1017.6 0.0
15/08:00pm 23.3 22.8 16.8 67 4.0 NNE 15 17 8 9 1017.5 1017.5 0.0
15/07:30pm 23.1 22.7 17.1 69 3.7 NNE 15 19 8 10 1017.1 1017.1 0.0
15/07:00pm 22.9 22.1 17.1 70 3.6 NNE 17 19 9 10 1016.8 1016.8 0.0
15/06:30pm 23.3 22.1 17.5 70 3.6 NNE 20 26 11 14 1016.2 1016.2 0.0
15/06:00pm 23.7 22.6 17.7 69 3.7 NE 20 26 11 14 1015.9 1015.9 0.0
15/05:30pm 24.3 23.2 17.8 67 4.1 NE 20 24 11 13 1016.1 1016.1 0.0
15/05:00pm 24.8 23.4 17.0 62 4.8 NE 20 26 11 14 1015.8 1015.8 0.0
15/04:30pm 25.7 23.7 17.4 60 5.2 NNE 24 28 13 15 1015.5 1015.5 0.0
15/04:00pm 26.0 23.6 17.4 59 5.4 NE 26 30 14 16 1015.5 1015.5 0.0
15/03:30pm 26.8 24.0 17.3 56 5.9 NNE 28 30 15 16 1015.4 1015.4 0.0
15/03:00pm 25.7 23.9 17.9 62 4.9 NE 24 30 13 16 1015.7 1015.7 0.0
15/02:30pm 26.2 23.8 17.3 58 5.6 NE 26 30 14 16 1015.7 1015.7 0.0
15/02:00pm 26.4 24.0 18.3 61 5.1 NE 28 32 15 17 1015.9 1015.9 0.0
15/01:30pm 25.2 22.8 18.2 65 4.4 NE 28 33 15 18 1016.2 1016.2 0.0
15/01:00pm 25.8 23.0 18.2 63 4.8 NE 30 32 16 17 1016.6 1016.6 0.0
15/12:30pm 27.5 24.7 17.4 54 6.3 NE 28 32 15 17 1017.0 1017.0 0.0
15/12:00pm 28.0 25.8 17.8 54 6.5 NE 26 30 14 16 1017.3 1017.3 0.0
15/11:30am 27.8 25.5 17.6 53 6.4 NNE 26 28 14 15 1017.6 1017.6 0.0
15/11:00am 27.4 25.4 17.3 54 6.3 NNE 24 28 13 15 1018.0 1018.0 0.0
15/10:30am 27.8 26.1 17.3 52 6.6 NNE 22 28 12 15 1018.3 1018.3 0.0
15/10:00am 27.0 25.9 17.8 57 5.8 NNE 20 24 11 13 1018.6 1018.6 0.0
15/09:30am 27.4 26.5 18.1 57 5.9 NNE 20 22 11 12 1018.8 1018.8 0.0
15/09:00am 26.9 26.6 18.2 59 5.5 NNE 17 19 9 10 1018.9 1018.9 0.0
15/08:30am 26.7 26.8 19.1 63 4.9 NNE 17 19 9 10 1018.9 1018.9 0.0
15/08:00am 24.3 25.3 19.4 74 3.1 N 13 15 7 8 1018.9 1018.9 0.0
15/07:30am 23.1 24.5 19.5 80 2.3 NNE 11 15 6 8 1018.6 1018.6 0.0
15/07:00am 22.5 25.4 19.9 85 1.7 WNW 4 7 2 4 1018.4 1018.4 0.0
15/06:30am 21.6 24.3 20.2 92 0.9 W 6 7 3 4 1018.1 1018.1 0.0
15/06:00am 21.0 23.4 20.8 99 0.1 W 9 9 5 5 1017.7 1017.7 0.0
15/05:30am 19.8 21.6 19.6 99 0.1 WNW 9 9 5 5 1017.5 1017.5 0.0
15/05:00am 19.2 21.1 19.0 99 0.1 W 7 9 4 5 1017.2 1017.2 0.0
15/04:30am 18.9 20.8 18.6 98 0.2 W 6 7 3 4 1016.7 1016.7 0.0
15/04:00am 19.2 21.0 18.4 95 0.5 W 6 7 3 4 1016.4 1016.4 0.0
15/03:30am 19.7 21.5 18.4 92 0.8 W 6 7 3 4 1016.2 1016.2 0.0
15/03:00am 20.4 22.2 18.7 90 1.1 W 7 9 4 5 1016.3 1016.3 0.0
15/02:30am 21.0 23.1 19.3 90 1.1 W 7 9 4 5 1016.4 1016.4 0.0
15/02:00am 21.5 23.4 19.8 90 1.1 W 9 11 5 6 1016.5 1016.5 0.0
15/01:30am 22.0 23.6 19.9 88 1.3 WNW 11 13 6 7 1016.5 1016.5 0.0
15/01:00am 22.2 24.3 20.1 88 1.3 NW 9 11 5 6 1016.8 1016.8 0.0
15/12:30am 22.0 23.8 19.5 86 1.6 NNW 9 13 5 7 1017.1 1017.1 0.0
15/12:00am 22.2 24.1 19.7 86 1.6 NNW 9 13 5 7 1017.4 1017.4 0.0
 
Date/Time
EST
Temp
°C
App
Temp
°C
Dew
Point
°C
Rel
Hum
%
Delta-T
°C
Wind Press
QNH
hPa
Press
MSL
hPa
Rain since
9am
mm
Dir  Spd
km/h
Gust
km/h
Spd
kts
Gust
kts
14/11:30pm 22.3 24.1 19.5 84 1.8 NW 9 13 5 7 1017.6 1017.6 0.0
14/11:00pm 22.5 24.2 19.3 82 2.0 NNW 9 11 5 6 1018.0 1018.0 0.0
14/10:30pm 22.7 23.9 19.1 80 2.3 NNW 11 13 6 7 1018.2 1018.2 0.0
14/10:00pm 23.0 22.6 19.0 78 2.5 NNE 19 22 10 12 1018.3 1018.3 0.0
14/09:30pm 22.8 22.3 18.6 77 2.6 NNE 19 22 10 12 1018.2 1018.2 0.0
14/09:00pm 22.8 22.1 18.6 77 2.6 NNE 20 24 11 13 1018.1 1018.1 0.0
14/08:30pm 22.8 22.1 18.6 77 2.6 NNE 20 26 11 14 1018.0 1018.0 0.0
14/08:00pm 22.9 22.0 18.2 75 2.9 NNE 20 26 11 14 1017.7 1017.7 0.0
14/07:30pm 22.9 21.9 18.0 74 3.1 NNE 20 24 11 13 1017.7 1017.7 0.0
14/07:00pm 23.1 22.1 18.0 73 3.2 NNE 20 26 11 14 1017.6 1017.6 0.0
14/06:30pm 23.2 22.1 17.4 70 3.6 NNE 19 22 10 12 1017.5 1017.5 0.0
14/06:00pm 23.6 22.6 17.6 69 3.7 NNE 19 22 10 12 1017.4 1017.4 0.0
14/05:30pm 24.0 23.1 17.7 68 3.9 NE 19 22 10 12 1017.1 1017.1 0.0
14/05:00pm 24.0 23.2 18.0 69 3.8 ENE 19 22 10 12 1016.9 1016.9 0.0
14/04:30pm 24.4 23.6 18.1 68 4.0 NE 19 20 10 11 1016.8 1016.8 0.0
14/04:00pm 24.8 24.3 17.8 65 4.4 NE 17 22 9 12 1017.0 1017.0 0.0
14/03:30pm 24.3 23.6 17.3 65 4.3 NE 17 19 9 10 1016.6 1016.6 0.0
14/03:00pm 24.7 24.0 17.4 64 4.5 NE 17 19 9 10 1016.6 1016.6 0.0
14/02:30pm 25.2 24.7 17.9 64 4.6 ENE 17 20 9 11 1016.6 1016.6 0.0
14/02:00pm 25.3 24.7 18.5 66 4.3 NE 19 24 10 13 1016.8 1016.8 0.0
14/01:30pm 25.6 24.8 18.0 63 4.8 NE 19 22 10 12 1017.1 1017.1 0.0
14/01:00pm 26.4 27.0 18.5 62 5.0 ENE 13 17 7 9 1017.5 1017.5 0.0
14/12:30pm 25.8 26.3 17.4 59 5.2 ENE 11 15 6 8 1017.7 1017.7 0.0
14/12:00pm 26.4 26.7 18.8 63 4.9 E 15 20 8 11 1017.9 1017.9 0.0
14/11:30am 27.4 27.5 18.4 58 5.7 SE 15 17 8 9 1018.1 1018.1 0.0
14/11:00am 26.2 25.9 17.3 58 5.5 ESE 15 17 8 9 1018.5 1018.5 0.0
14/10:30am 25.9 25.9 18.1 62 4.9 SE 15 19 8 10 1018.8 1018.8 0.0
14/10:00am 26.4 25.8 17.5 58 5.6 SE 17 19 9 10 1018.7 1018.7 0.0
14/09:30am 25.8 26.2 17.2 59 5.4 SSE 11 15 6 8 1018.8 1018.8 0.0
14/09:00am 25.4 25.2 16.8 59 5.3 SSE 13 15 7 8 1018.7 1018.7 0.0
14/08:30am 24.1 23.1 16.6 63 4.6 SE 17 19 9 10 1018.4 1018.4 0.0
14/08:00am 24.3 23.8 17.8 67 4.1 SSE 17 19 9 10 1018.4 1018.4 0.0
14/07:30am 23.0 22.0 16.5 67 4.0 SSE 17 20 9 11 1018.2 1018.2 0.0
14/07:00am 21.9 22.0 16.4 71 3.3 S 11 15 6 8 1018.2 1018.2 0.0
14/06:30am 21.2 21.3 16.6 75 2.8 SSW 11 17 6 9 1017.8 1017.8 0.0
14/06:00am 19.3 20.0 17.1 87 1.3 SW 9 13 5 7 1017.6 1017.6 0.0
14/05:30am 17.8 17.5 16.5 92 0.8 SW 13 15 7 8 1017.3 1017.3 0.0
14/05:00am 17.5 17.3 15.8 90 1.0 SW 11 15 6 8 1017.0 1017.0 0.0
14/04:30am 17.6 17.4 15.6 88 1.2 SW 11 15 6 8 1016.5 1016.5 0.0
14/04:00am 17.8 17.6 15.8 88 1.2 SW 11 13 6 7 1016.2 1016.2 0.0
14/03:30am 17.6 17.1 14.9 84 1.6 SW 11 15 6 8 1016.4 1016.4 0.0
14/03:00am 18.0 17.6 15.3 84 1.6 SW 11 13 6 7 1016.3 1016.3 0.0
14/02:30am 18.1 17.7 15.2 83 1.7 SW 11 15 6 8 1016.4 1016.4 0.0
14/02:00am 18.1 17.2 14.8 81 1.9 SSW 13 15 7 8 1016.6 1016.6 0.0
14/01:30am 18.4 17.8 14.5 78 2.3 SW 11 15 6 8 1017.0 1017.0 0.0
14/01:00am 18.5 18.0 14.8 79 2.1 SW 11 15 6 8 1017.2 1017.2 0.0
14/12:30am 18.7 18.2 14.8 78 2.3 SW 11 15 6 8 1017.6 1017.6 0.0
14/12:00am 18.5 17.7 14.0 75 2.6 SSW 11 15 6 8 1017.9 1017.9 0.0
 
Date/Time
EST
Temp
°C
App
Temp
°C
Dew
Point
°C
Rel
Hum
%
Delta-T
°C
Wind Press
QNH
hPa
Press
MSL
hPa
Rain since
9am
mm
Dir  Spd
km/h
Gust
km/h
Spd
kts
Gust
kts
13/11:30pm 18.8 18.0 14.1 74 2.7 SW 11 13 6 7 1018.3 1018.3 0.0
13/11:00pm 19.0 18.3 14.3 74 2.7 SSW 11 15 6 8 1018.6 1018.6 0.0
13/10:30pm 19.2 18.0 14.0 72 3.0 SW 13 17 7 9 1018.8 1018.8 0.0
13/10:00pm 19.4 19.0 14.2 72 3.0 SW 9 15 5 8 1018.9 1018.9 0.0
13/09:30pm 19.7 18.2 13.2 66 3.7 SSE 13 19 7 10 1019.0 1019.0 0.0
13/09:00pm 21.2 19.1 14.8 67 3.8 SE 19 22 10 12 1019.1 1019.1 0.0
13/08:30pm 21.2 18.5 13.6 62 4.4 SE 20 26 11 14 1018.9 1018.9 0.0
13/08:00pm 21.2 18.5 14.6 66 3.9 SE 22 26 12 14 1018.6 1018.6 0.0
13/07:30pm 21.3 18.4 14.0 63 4.2 SE 22 28 12 15 1018.5 1018.5 0.0
13/07:00pm 21.6 17.9 14.0 62 4.4 SE 26 30 14 16 1018.1 1018.1 0.0
13/06:30pm 21.7 17.9 13.6 60 4.7 SE 26 32 14 17 1018.0 1018.0 0.0
13/06:00pm 22.0 18.2 13.6 59 4.8 SE 26 32 14 17 1018.2 1018.2 0.0
13/05:30pm 22.6 18.8 13.7 57 5.2 SE 26 32 14 17 1017.7 1017.7 0.0
13/05:00pm 23.5 19.9 14.2 56 5.5 SE 26 32 14 17 1017.7 1017.7 0.0
13/04:30pm 24.2 19.7 13.7 52 6.1 SE 30 35 16 19 1017.4 1017.4 0.0
13/04:00pm 24.5 20.1 14.0 52 6.2 SE 30 35 16 19 1017.2 1017.2 0.0
13/03:30pm 25.5 21.8 14.9 52 6.4 SE 28 33 15 18 1017.4 1017.4 0.0
13/03:00pm 25.8 21.9 14.3 49 6.8 SE 28 33 15 18 1017.6 1017.6 0.0
13/02:30pm 26.2 22.1 15.0 50 6.7 SE 30 37 16 20 1017.7 1017.7 0.0
13/02:00pm 26.6 22.1 15.0 49 7.0 SE 32 35 17 19 1017.8 1017.8 0.0

Other Formats:

Comma delimited format used in spreadsheet applications
http://www.bom.gov.au/fwo/IDQ60801/IDQ60801.94580.axf

JavaScript Object Notation format (JSON) in row-major order
http://www.bom.gov.au/fwo/IDQ60801/IDQ60801.94580.json